sensor_id;sensor_type;location;lat;lon;timestamp;P1;durP1;ratioP1;P2;durP2;ratioP2
19705;SDS011;10003;52.506;4.700;2022-09-17T00:01:00;3.57;;;1.93;;
19705;SDS011;10003;52.506;4.700;2022-09-17T00:03:30;4.10;;;1.97;;
19705;SDS011;10003;52.506;4.700;2022-09-17T00:05:59;5.87;;;2.67;;
19705;SDS011;10003;52.506;4.700;2022-09-17T00:08:27;13.43;;;3.13;;
19705;SDS011;10003;52.506;4.700;2022-09-17T00:10:57;11.27;;;2.73;;
19705;SDS011;10003;52.506;4.700;2022-09-17T00:13:25;7.00;;;2.13;;
19705;SDS011;10003;52.506;4.700;2022-09-17T00:15:54;6.23;;;1.90;;
19705;SDS011;10003;52.506;4.700;2022-09-17T00:18:22;5.43;;;2.13;;
19705;SDS011;10003;52.506;4.700;2022-09-17T00:20:50;3.00;;;1.40;;
19705;SDS011;10003;52.506;4.700;2022-09-17T00:23:19;5.27;;;1.93;;
19705;SDS011;10003;52.506;4.700;2022-09-17T00:25:47;8.23;;;2.50;;
19705;SDS011;10003;52.506;4.700;2022-09-17T00:28:17;5.13;;;1.57;;
19705;SDS011;10003;52.506;4.700;2022-09-17T00:30:45;5.13;;;1.47;;
19705;SDS011;10003;52.506;4.700;2022-09-17T00:33:15;10.80;;;1.93;;
19705;SDS011;10003;52.506;4.700;2022-09-17T00:35:43;4.80;;;1.87;;
19705;SDS011;10003;52.506;4.700;2022-09-17T00:38:12;7.87;;;2.40;;
19705;SDS011;10003;52.506;4.700;2022-09-17T00:40:40;2.80;;;2.30;;
19705;SDS011;10003;52.506;4.700;2022-09-17T00:43:09;10.90;;;2.70;;
19705;SDS011;10003;52.506;4.700;2022-09-17T00:45:39;5.57;;;2.23;;
19705;SDS011;10003;52.506;4.700;2022-09-17T00:48:08;2.03;;;1.50;;
19705;SDS011;10003;52.506;4.700;2022-09-17T00:50:38;4.43;;;1.90;;
19705;SDS011;10003;52.506;4.700;2022-09-17T00:53:08;3.07;;;2.73;;
19705;SDS011;10003;52.506;4.700;2022-09-17T00:55:38;10.83;;;2.30;;
19705;SDS011;10003;52.506;4.700;2022-09-17T00:58:08;15.33;;;2.77;;
19705;SDS011;10003;52.506;4.700;2022-09-17T01:00:37;9.73;;;1.90;;
19705;SDS011;10003;52.506;4.700;2022-09-17T01:03:07;1.43;;;1.33;;
19705;SDS011;10003;52.506;4.700;2022-09-17T01:05:36;8.57;;;1.50;;
19705;SDS011;10003;52.506;4.700;2022-09-17T01:08:07;5.07;;;1.90;;
19705;SDS011;10003;52.506;4.700;2022-09-17T01:10:48;3.90;;;1.37;;
19705;SDS011;10003;52.506;4.700;2022-09-17T01:13:24;6.03;;;1.57;;
19705;SDS011;10003;52.506;4.700;2022-09-17T01:15:57;8.00;;;2.10;;
19705;SDS011;10003;52.506;4.700;2022-09-17T01:18:31;9.13;;;2.33;;
19705;SDS011;10003;52.506;4.700;2022-09-17T01:23:56;5.97;;;3.17;;
19705;SDS011;10003;52.506;4.700;2022-09-17T01:26:33;7.90;;;2.07;;
19705;SDS011;10003;52.506;4.700;2022-09-17T01:29:09;3.30;;;1.70;;
19705;SDS011;10003;52.506;4.700;2022-09-17T01:31:42;11.10;;;2.47;;
19705;SDS011;10003;52.506;4.700;2022-09-17T01:34:17;6.23;;;1.80;;
19705;SDS011;10003;52.506;4.700;2022-09-17T01:36:49;3.20;;;1.43;;
19705;SDS011;10003;52.506;4.700;2022-09-17T01:39:22;3.73;;;1.37;;
19705;SDS011;10003;52.506;4.700;2022-09-17T01:41:55;4.23;;;2.03;;
19705;SDS011;10003;52.506;4.700;2022-09-17T01:44:27;9.33;;;2.43;;
19705;SDS011;10003;52.506;4.700;2022-09-17T01:47:00;11.37;;;5.13;;
19705;SDS011;10003;52.506;4.700;2022-09-17T01:49:29;4.03;;;2.60;;
19705;SDS011;10003;52.506;4.700;2022-09-17T01:51:58;11.33;;;2.53;;
19705;SDS011;10003;52.506;4.700;2022-09-17T01:54:29;2.57;;;1.97;;
19705;SDS011;10003;52.506;4.700;2022-09-17T01:56:58;1.63;;;1.53;;
19705;SDS011;10003;52.506;4.700;2022-09-17T01:59:29;6.73;;;2.33;;
19705;SDS011;10003;52.506;4.700;2022-09-17T02:02:02;5.93;;;2.10;;
19705;SDS011;10003;52.506;4.700;2022-09-17T02:04:35;11.40;;;2.17;;
19705;SDS011;10003;52.506;4.700;2022-09-17T02:07:05;5.83;;;1.93;;
19705;SDS011;10003;52.506;4.700;2022-09-17T02:09:35;9.87;;;2.47;;
19705;SDS011;10003;52.506;4.700;2022-09-17T02:12:06;6.63;;;2.53;;
19705;SDS011;10003;52.506;4.700;2022-09-17T02:14:38;9.07;;;2.67;;
19705;SDS011;10003;52.506;4.700;2022-09-17T02:17:11;4.73;;;2.47;;
19705;SDS011;10003;52.506;4.700;2022-09-17T02:19:43;10.80;;;3.37;;
19705;SDS011;10003;52.506;4.700;2022-09-17T02:22:14;7.33;;;3.13;;
19705;SDS011;10003;52.506;4.700;2022-09-17T02:24:52;2.40;;;1.20;;
19705;SDS011;10003;52.506;4.700;2022-09-17T02:27:35;3.17;;;1.40;;
19705;SDS011;10003;52.506;4.700;2022-09-17T02:30:04;9.23;;;2.97;;
19705;SDS011;10003;52.506;4.700;2022-09-17T02:32:34;4.13;;;1.87;;
19705;SDS011;10003;52.506;4.700;2022-09-17T02:35:03;1.60;;;1.07;;
19705;SDS011;10003;52.506;4.700;2022-09-17T02:37:32;8.30;;;1.77;;
19705;SDS011;10003;52.506;4.700;2022-09-17T02:40:01;6.33;;;2.33;;
19705;SDS011;10003;52.506;4.700;2022-09-17T02:42:31;5.17;;;1.87;;
19705;SDS011;10003;52.506;4.700;2022-09-17T02:45:04;8.27;;;4.10;;
19705;SDS011;10003;52.506;4.700;2022-09-17T02:47:45;6.03;;;2.00;;
19705;SDS011;10003;52.506;4.700;2022-09-17T02:50:25;8.37;;;2.33;;
19705;SDS011;10003;52.506;4.700;2022-09-17T02:53:00;9.73;;;2.50;;
19705;SDS011;10003;52.506;4.700;2022-09-17T02:55:35;5.97;;;3.73;;
19705;SDS011;10003;52.506;4.700;2022-09-17T02:58:06;1.73;;;1.40;;
19705;SDS011;10003;52.506;4.700;2022-09-17T03:00:38;2.77;;;1.33;;
19705;SDS011;10003;52.506;4.700;2022-09-17T03:03:10;2.30;;;1.47;;
19705;SDS011;10003;52.506;4.700;2022-09-17T03:05:40;6.03;;;1.30;;
19705;SDS011;10003;52.506;4.700;2022-09-17T03:08:11;3.30;;;1.63;;
19705;SDS011;10003;52.506;4.700;2022-09-17T03:10:40;10.53;;;1.87;;
19705;SDS011;10003;52.506;4.700;2022-09-17T03:13:08;6.03;;;2.10;;
19705;SDS011;10003;52.506;4.700;2022-09-17T03:15:36;7.17;;;1.93;;
19705;SDS011;10003;52.506;4.700;2022-09-17T03:18:05;4.33;;;1.80;;
19705;SDS011;10003;52.506;4.700;2022-09-17T03:20:35;6.77;;;1.83;;
19705;SDS011;10003;52.506;4.700;2022-09-17T03:23:03;2.37;;;1.30;;
19705;SDS011;10003;52.506;4.700;2022-09-17T03:25:31;1.67;;;1.30;;
19705;SDS011;10003;52.506;4.700;2022-09-17T03:28:00;1.50;;;1.23;;
19705;SDS011;10003;52.506;4.700;2022-09-17T03:30:28;3.77;;;1.60;;
19705;SDS011;10003;52.506;4.700;2022-09-17T03:32:57;7.57;;;1.70;;
19705;SDS011;10003;52.506;4.700;2022-09-17T03:35:25;2.17;;;1.30;;
19705;SDS011;10003;52.506;4.700;2022-09-17T03:37:55;6.87;;;1.57;;
19705;SDS011;10003;52.506;4.700;2022-09-17T03:40:23;2.03;;;1.20;;
19705;SDS011;10003;52.506;4.700;2022-09-17T03:42:51;6.90;;;1.73;;
19705;SDS011;10003;52.506;4.700;2022-09-17T03:45:20;2.93;;;1.30;;
19705;SDS011;10003;52.506;4.700;2022-09-17T03:47:48;5.70;;;2.07;;
19705;SDS011;10003;52.506;4.700;2022-09-17T03:50:16;2.63;;;2.00;;
19705;SDS011;10003;52.506;4.700;2022-09-17T03:52:45;9.00;;;2.03;;
19705;SDS011;10003;52.506;4.700;2022-09-17T03:55:14;4.73;;;1.70;;
19705;SDS011;10003;52.506;4.700;2022-09-17T03:57:43;3.37;;;2.27;;
19705;SDS011;10003;52.506;4.700;2022-09-17T04:00:12;4.33;;;2.03;;
19705;SDS011;10003;52.506;4.700;2022-09-17T04:02:42;1.27;;;0.87;;
19705;SDS011;10003;52.506;4.700;2022-09-17T04:05:11;4.33;;;0.93;;
19705;SDS011;10003;52.506;4.700;2022-09-17T04:07:39;5.40;;;1.53;;
19705;SDS011;10003;52.506;4.700;2022-09-17T04:10:07;1.20;;;0.87;;
19705;SDS011;10003;52.506;4.700;2022-09-17T04:12:37;5.17;;;1.73;;
19705;SDS011;10003;52.506;4.700;2022-09-17T04:15:07;1.27;;;0.90;;
19705;SDS011;10003;52.506;4.700;2022-09-17T04:17:36;1.27;;;1.03;;
19705;SDS011;10003;52.506;4.700;2022-09-17T04:20:04;3.33;;;1.80;;
19705;SDS011;10003;52.506;4.700;2022-09-17T04:22:33;6.10;;;0.80;;
19705;SDS011;10003;52.506;4.700;2022-09-17T04:25:01;4.40;;;1.63;;
19705;SDS011;10003;52.506;4.700;2022-09-17T04:27:29;0.73;;;0.73;;
19705;SDS011;10003;52.506;4.700;2022-09-17T04:29:59;1.87;;;0.93;;
19705;SDS011;10003;52.506;4.700;2022-09-17T04:32:27;6.93;;;1.83;;
19705;SDS011;10003;52.506;4.700;2022-09-17T04:34:56;0.90;;;0.90;;
19705;SDS011;10003;52.506;4.700;2022-09-17T04:37:24;3.10;;;1.00;;
19705;SDS011;10003;52.506;4.700;2022-09-17T04:39:52;6.33;;;1.37;;
19705;SDS011;10003;52.506;4.700;2022-09-17T04:42:21;10.50;;;3.60;;
19705;SDS011;10003;52.506;4.700;2022-09-17T04:44:49;12.97;;;3.93;;
19705;SDS011;10003;52.506;4.700;2022-09-17T04:47:19;5.17;;;1.90;;
19705;SDS011;10003;52.506;4.700;2022-09-17T04:49:47;5.87;;;2.40;;
19705;SDS011;10003;52.506;4.700;2022-09-17T04:52:16;8.30;;;2.03;;
19705;SDS011;10003;52.506;4.700;2022-09-17T04:54:44;6.10;;;2.87;;
19705;SDS011;10003;52.506;4.700;2022-09-17T04:57:12;3.57;;;2.63;;
19705;SDS011;10003;52.506;4.700;2022-09-17T04:59:41;9.10;;;2.37;;
19705;SDS011;10003;52.506;4.700;2022-09-17T05:02:09;8.73;;;2.67;;
19705;SDS011;10003;52.506;4.700;2022-09-17T05:04:39;6.70;;;1.80;;
19705;SDS011;10003;52.506;4.700;2022-09-17T05:07:07;11.37;;;2.40;;
19705;SDS011;10003;52.506;4.700;2022-09-17T05:09:39;24.20;;;2.80;;
19705;SDS011;10003;52.506;4.700;2022-09-17T05:12:08;4.73;;;4.30;;
19705;SDS011;10003;52.506;4.700;2022-09-17T05:14:36;0.50;;;0.50;;
19705;SDS011;10003;52.506;4.700;2022-09-17T05:17:04;0.40;;;0.40;;
19705;SDS011;10003;52.506;4.700;2022-09-17T05:19:33;0.40;;;0.40;;
19705;SDS011;10003;52.506;4.700;2022-09-17T05:22:02;0.50;;;0.50;;
19705;SDS011;10003;52.506;4.700;2022-09-17T05:24:31;0.50;;;0.50;;
19705;SDS011;10003;52.506;4.700;2022-09-17T05:27:02;0.50;;;0.50;;
19705;SDS011;10003;52.506;4.700;2022-09-17T05:29:30;0.50;;;0.50;;
19705;SDS011;10003;52.506;4.700;2022-09-17T05:31:59;0.50;;;0.50;;
19705;SDS011;10003;52.506;4.700;2022-09-17T05:34:27;0.47;;;0.47;;
19705;SDS011;10003;52.506;4.700;2022-09-17T05:36:56;0.50;;;0.50;;
19705;SDS011;10003;52.506;4.700;2022-09-17T05:39:25;0.50;;;0.50;;
19705;SDS011;10003;52.506;4.700;2022-09-17T05:41:54;0.50;;;0.50;;
19705;SDS011;10003;52.506;4.700;2022-09-17T05:44:22;0.40;;;0.40;;
19705;SDS011;10003;52.506;4.700;2022-09-17T05:46:51;0.50;;;0.50;;
19705;SDS011;10003;52.506;4.700;2022-09-17T05:49:20;0.40;;;0.40;;
19705;SDS011;10003;52.506;4.700;2022-09-17T05:51:48;0.40;;;0.40;;
19705;SDS011;10003;52.506;4.700;2022-09-17T05:54:17;0.50;;;0.50;;
19705;SDS011;10003;52.506;4.700;2022-09-17T05:56:47;0.50;;;0.50;;
19705;SDS011;10003;52.506;4.700;2022-09-17T05:59:15;0.50;;;0.50;;
19705;SDS011;10003;52.506;4.700;2022-09-17T06:01:44;0.50;;;0.50;;
19705;SDS011;10003;52.506;4.700;2022-09-17T06:04:12;0.40;;;0.40;;
19705;SDS011;10003;52.506;4.700;2022-09-17T06:06:41;0.40;;;0.40;;
19705;SDS011;10003;52.506;4.700;2022-09-17T06:09:09;0.40;;;0.40;;
19705;SDS011;10003;52.506;4.700;2022-09-17T06:11:38;0.50;;;0.50;;
19705;SDS011;10003;52.506;4.700;2022-09-17T06:14:08;0.50;;;0.50;;
19705;SDS011;10003;52.506;4.700;2022-09-17T06:16:36;0.40;;;0.40;;
19705;SDS011;10003;52.506;4.700;2022-09-17T06:19:05;0.40;;;0.40;;
19705;SDS011;10003;52.506;4.700;2022-09-17T06:21:33;0.40;;;0.40;;
19705;SDS011;10003;52.506;4.700;2022-09-17T06:24:02;0.40;;;0.40;;
19705;SDS011;10003;52.506;4.700;2022-09-17T06:26:30;0.40;;;0.40;;
19705;SDS011;10003;52.506;4.700;2022-09-17T06:28:58;0.40;;;0.40;;
19705;SDS011;10003;52.506;4.700;2022-09-17T06:31:28;0.40;;;0.40;;
19705;SDS011;10003;52.506;4.700;2022-09-17T06:33:57;0.40;;;0.40;;
19705;SDS011;10003;52.506;4.700;2022-09-17T06:36:27;0.40;;;0.40;;
19705;SDS011;10003;52.506;4.700;2022-09-17T06:38:55;0.40;;;0.40;;
19705;SDS011;10003;52.506;4.700;2022-09-17T06:41:23;0.40;;;0.40;;
19705;SDS011;10003;52.506;4.700;2022-09-17T06:43:52;0.40;;;0.40;;
19705;SDS011;10003;52.506;4.700;2022-09-17T06:46:20;0.40;;;0.40;;
19705;SDS011;10003;52.506;4.700;2022-09-17T06:48:50;0.40;;;0.40;;
19705;SDS011;10003;52.506;4.700;2022-09-17T06:51:18;0.50;;;0.50;;
19705;SDS011;10003;52.506;4.700;2022-09-17T06:53:48;0.40;;;0.40;;
19705;SDS011;10003;52.506;4.700;2022-09-17T06:56:16;0.40;;;0.40;;
19705;SDS011;10003;52.506;4.700;2022-09-17T06:58:44;0.40;;;0.40;;
19705;SDS011;10003;52.506;4.700;2022-09-17T07:01:12;0.50;;;0.50;;
19705;SDS011;10003;52.506;4.700;2022-09-17T07:03:41;0.40;;;0.40;;
19705;SDS011;10003;52.506;4.700;2022-09-17T07:06:11;0.40;;;0.40;;
19705;SDS011;10003;52.506;4.700;2022-09-17T07:08:39;0.40;;;0.40;;
19705;SDS011;10003;52.506;4.700;2022-09-17T07:11:08;0.40;;;0.40;;
19705;SDS011;10003;52.506;4.700;2022-09-17T07:13:36;1.37;;;1.33;;
19705;SDS011;10003;52.506;4.700;2022-09-17T07:16:05;0.50;;;0.50;;
19705;SDS011;10003;52.506;4.700;2022-09-17T07:18:33;1.53;;;1.43;;
19705;SDS011;10003;52.506;4.700;2022-09-17T07:21:03;3.87;;;1.20;;
19705;SDS011;10003;52.506;4.700;2022-09-17T07:23:34;1.43;;;1.10;;
19705;SDS011;10003;52.506;4.700;2022-09-17T07:26:04;3.73;;;1.37;;
19705;SDS011;10003;52.506;4.700;2022-09-17T07:28:32;6.23;;;1.60;;
19705;SDS011;10003;52.506;4.700;2022-09-17T07:31:01;7.73;;;1.80;;
19705;SDS011;10003;52.506;4.700;2022-09-17T07:33:32;2.90;;;1.00;;
19705;SDS011;10003;52.506;4.700;2022-09-17T07:36:02;1.43;;;1.20;;
19705;SDS011;10003;52.506;4.700;2022-09-17T07:38:30;1.13;;;1.03;;
19705;SDS011;10003;52.506;4.700;2022-09-17T07:41:01;6.77;;;1.80;;
19705;SDS011;10003;52.506;4.700;2022-09-17T07:43:30;2.60;;;1.57;;
19705;SDS011;10003;52.506;4.700;2022-09-17T07:46:00;9.20;;;2.60;;
19705;SDS011;10003;52.506;4.700;2022-09-17T07:48:29;2.53;;;0.97;;
19705;SDS011;10003;52.506;4.700;2022-09-17T07:50:59;1.93;;;0.87;;
19705;SDS011;10003;52.506;4.700;2022-09-17T07:53:27;5.67;;;1.10;;
19705;SDS011;10003;52.506;4.700;2022-09-17T07:55:56;0.97;;;0.97;;
19705;SDS011;10003;52.506;4.700;2022-09-17T07:58:28;2.33;;;1.50;;
19705;SDS011;10003;52.506;4.700;2022-09-17T08:01:00;0.70;;;0.70;;
19705;SDS011;10003;52.506;4.700;2022-09-17T08:03:28;1.03;;;0.93;;
19705;SDS011;10003;52.506;4.700;2022-09-17T08:06:00;0.53;;;0.53;;
19705;SDS011;10003;52.506;4.700;2022-09-17T08:08:30;4.53;;;1.20;;
19705;SDS011;10003;52.506;4.700;2022-09-17T08:10:59;0.60;;;0.60;;
19705;SDS011;10003;52.506;4.700;2022-09-17T08:13:29;1.70;;;1.10;;
19705;SDS011;10003;52.506;4.700;2022-09-17T08:15:58;4.63;;;2.30;;
19705;SDS011;10003;52.506;4.700;2022-09-17T08:18:27;3.33;;;2.10;;
19705;SDS011;10003;52.506;4.700;2022-09-17T08:20:56;0.50;;;0.50;;
19705;SDS011;10003;52.506;4.700;2022-09-17T08:23:25;0.50;;;0.50;;
19705;SDS011;10003;52.506;4.700;2022-09-17T08:25:53;0.50;;;0.50;;
19705;SDS011;10003;52.506;4.700;2022-09-17T08:28:22;0.50;;;0.50;;
19705;SDS011;10003;52.506;4.700;2022-09-17T08:30:52;0.50;;;0.50;;
19705;SDS011;10003;52.506;4.700;2022-09-17T08:33:21;0.50;;;0.50;;
19705;SDS011;10003;52.506;4.700;2022-09-17T08:35:49;0.50;;;0.50;;
19705;SDS011;10003;52.506;4.700;2022-09-17T08:38:18;0.50;;;0.50;;
19705;SDS011;10003;52.506;4.700;2022-09-17T08:40:51;0.50;;;0.50;;
19705;SDS011;10003;52.506;4.700;2022-09-17T08:43:22;0.50;;;0.50;;
19705;SDS011;10003;52.506;4.700;2022-09-17T08:45:53;0.50;;;0.50;;
19705;SDS011;10003;52.506;4.700;2022-09-17T08:48:22;0.50;;;0.50;;
19705;SDS011;10003;52.506;4.700;2022-09-17T08:50:52;0.40;;;0.40;;
19705;SDS011;10003;52.506;4.700;2022-09-17T08:53:30;0.50;;;0.50;;
19705;SDS011;10003;52.506;4.700;2022-09-17T08:56:04;0.50;;;0.50;;
19705;SDS011;10003;52.506;4.700;2022-09-17T08:58:45;0.40;;;0.40;;
19705;SDS011;10003;52.506;4.700;2022-09-17T09:01:30;0.40;;;0.40;;
19705;SDS011;10003;52.506;4.700;2022-09-17T09:04:07;0.40;;;0.40;;
19705;SDS011;10003;52.506;4.700;2022-09-17T09:06:40;0.40;;;0.40;;
19705;SDS011;10003;52.506;4.700;2022-09-17T09:09:10;0.50;;;0.50;;
19705;SDS011;10003;52.506;4.700;2022-09-17T09:11:39;0.47;;;0.47;;
19705;SDS011;10003;52.506;4.700;2022-09-17T09:14:10;0.50;;;0.50;;
19705;SDS011;10003;52.506;4.700;2022-09-17T09:16:42;0.47;;;0.47;;
19705;SDS011;10003;52.506;4.700;2022-09-17T09:19:15;0.50;;;0.50;;
19705;SDS011;10003;52.506;4.700;2022-09-17T09:21:46;0.40;;;0.40;;
19705;SDS011;10003;52.506;4.700;2022-09-17T09:24:16;0.50;;;0.50;;
19705;SDS011;10003;52.506;4.700;2022-09-17T09:26:46;0.40;;;0.40;;
19705;SDS011;10003;52.506;4.700;2022-09-17T09:29:16;0.50;;;0.50;;
19705;SDS011;10003;52.506;4.700;2022-09-17T09:31:59;0.50;;;0.50;;
19705;SDS011;10003;52.506;4.700;2022-09-17T09:34:41;0.50;;;0.50;;
19705;SDS011;10003;52.506;4.700;2022-09-17T09:37:11;0.40;;;0.40;;
19705;SDS011;10003;52.506;4.700;2022-09-17T09:39:40;0.40;;;0.40;;
19705;SDS011;10003;52.506;4.700;2022-09-17T09:42:13;0.40;;;0.40;;
19705;SDS011;10003;52.506;4.700;2022-09-17T09:44:43;0.47;;;0.47;;
19705;SDS011;10003;52.506;4.700;2022-09-17T09:47:16;0.40;;;0.40;;
19705;SDS011;10003;52.506;4.700;2022-09-17T09:49:52;0.40;;;0.40;;
19705;SDS011;10003;52.506;4.700;2022-09-17T09:52:27;0.40;;;0.40;;
19705;SDS011;10003;52.506;4.700;2022-09-17T09:55:09;0.53;;;0.53;;
19705;SDS011;10003;52.506;4.700;2022-09-17T09:57:42;0.40;;;0.40;;
19705;SDS011;10003;52.506;4.700;2022-09-17T10:00:19;0.40;;;0.40;;
19705;SDS011;10003;52.506;4.700;2022-09-17T10:02:51;2.77;;;1.23;;
19705;SDS011;10003;52.506;4.700;2022-09-17T10:05:21;10.90;;;2.23;;
19705;SDS011;10003;52.506;4.700;2022-09-17T10:07:49;6.97;;;1.70;;
19705;SDS011;10003;52.506;4.700;2022-09-17T10:10:17;4.37;;;2.10;;
19705;SDS011;10003;52.506;4.700;2022-09-17T10:12:46;3.67;;;2.50;;
19705;SDS011;10003;52.506;4.700;2022-09-17T10:15:22;4.80;;;1.70;;
19705;SDS011;10003;52.506;4.700;2022-09-17T10:18:05;4.20;;;1.83;;
19705;SDS011;10003;52.506;4.700;2022-09-17T10:20:47;7.73;;;1.60;;
19705;SDS011;10003;52.506;4.700;2022-09-17T10:23:15;2.63;;;1.77;;
19705;SDS011;10003;52.506;4.700;2022-09-17T10:25:44;6.63;;;3.37;;
19705;SDS011;10003;52.506;4.700;2022-09-17T10:28:21;3.27;;;1.40;;
19705;SDS011;10003;52.506;4.700;2022-09-17T10:30:55;2.83;;;1.23;;
19705;SDS011;10003;52.506;4.700;2022-09-17T10:33:25;9.87;;;1.20;;
19705;SDS011;10003;52.506;4.700;2022-09-17T10:35:58;5.17;;;1.47;;
19705;SDS011;10003;52.506;4.700;2022-09-17T10:38:29;6.43;;;1.77;;
19705;SDS011;10003;52.506;4.700;2022-09-17T10:41:08;10.23;;;2.10;;
19705;SDS011;10003;52.506;4.700;2022-09-17T10:43:36;6.90;;;1.83;;
19705;SDS011;10003;52.506;4.700;2022-09-17T10:46:05;5.73;;;2.40;;
19705;SDS011;10003;52.506;4.700;2022-09-17T10:48:39;4.77;;;1.57;;
19705;SDS011;10003;52.506;4.700;2022-09-17T10:51:09;7.83;;;2.30;;
19705;SDS011;10003;52.506;4.700;2022-09-17T10:53:52;4.00;;;1.70;;
19705;SDS011;10003;52.506;4.700;2022-09-17T10:56:24;4.93;;;1.93;;
19705;SDS011;10003;52.506;4.700;2022-09-17T10:58:58;6.63;;;1.80;;
19705;SDS011;10003;52.506;4.700;2022-09-17T11:01:33;9.97;;;2.47;;
19705;SDS011;10003;52.506;4.700;2022-09-17T11:04:09;3.90;;;1.47;;
19705;SDS011;10003;52.506;4.700;2022-09-17T11:06:49;6.50;;;1.90;;
19705;SDS011;10003;52.506;4.700;2022-09-17T11:09:23;8.53;;;2.07;;
19705;SDS011;10003;52.506;4.700;2022-09-17T11:11:56;7.40;;;2.20;;
19705;SDS011;10003;52.506;4.700;2022-09-17T11:14:34;4.70;;;1.43;;
19705;SDS011;10003;52.506;4.700;2022-09-17T11:17:06;0.40;;;0.40;;
19705;SDS011;10003;52.506;4.700;2022-09-17T11:19:41;0.40;;;0.40;;
19705;SDS011;10003;52.506;4.700;2022-09-17T11:22:15;0.40;;;0.40;;
19705;SDS011;10003;52.506;4.700;2022-09-17T11:24:59;0.40;;;0.40;;
19705;SDS011;10003;52.506;4.700;2022-09-17T11:27:40;0.40;;;0.40;;
19705;SDS011;10003;52.506;4.700;2022-09-17T11:30:16;0.50;;;0.50;;
19705;SDS011;10003;52.506;4.700;2022-09-17T11:32:53;0.40;;;0.40;;
19705;SDS011;10003;52.506;4.700;2022-09-17T11:35:28;0.40;;;0.40;;
19705;SDS011;10003;52.506;4.700;2022-09-17T11:38:00;0.43;;;0.43;;
19705;SDS011;10003;52.506;4.700;2022-09-17T11:40:31;0.50;;;0.50;;
19705;SDS011;10003;52.506;4.700;2022-09-17T11:43:04;0.40;;;0.40;;
19705;SDS011;10003;52.506;4.700;2022-09-17T11:45:35;0.40;;;0.40;;
19705;SDS011;10003;52.506;4.700;2022-09-17T11:48:06;8.33;;;2.17;;
19705;SDS011;10003;52.506;4.700;2022-09-17T11:50:41;5.33;;;2.27;;
19705;SDS011;10003;52.506;4.700;2022-09-17T11:53:13;3.43;;;1.97;;
19705;SDS011;10003;52.506;4.700;2022-09-17T11:55:43;1.67;;;1.50;;
19705;SDS011;10003;52.506;4.700;2022-09-17T11:58:13;7.80;;;2.37;;
19705;SDS011;10003;52.506;4.700;2022-09-17T12:00:44;9.53;;;2.87;;
19705;SDS011;10003;52.506;4.700;2022-09-17T12:03:15;3.63;;;1.77;;
19705;SDS011;10003;52.506;4.700;2022-09-17T12:05:47;11.73;;;1.70;;
19705;SDS011;10003;52.506;4.700;2022-09-17T12:08:17;5.20;;;2.93;;
19705;SDS011;10003;52.506;4.700;2022-09-17T12:10:47;3.33;;;1.97;;
19705;SDS011;10003;52.506;4.700;2022-09-17T12:13:17;6.13;;;1.93;;
19705;SDS011;10003;52.506;4.700;2022-09-17T12:15:47;2.97;;;1.67;;
19705;SDS011;10003;52.506;4.700;2022-09-17T12:18:26;5.00;;;1.70;;
19705;SDS011;10003;52.506;4.700;2022-09-17T12:21:00;3.87;;;1.23;;
19705;SDS011;10003;52.506;4.700;2022-09-17T12:23:31;2.67;;;1.50;;
19705;SDS011;10003;52.506;4.700;2022-09-17T12:26:03;1.40;;;1.30;;
19705;SDS011;10003;52.506;4.700;2022-09-17T12:28:36;3.33;;;1.00;;
19705;SDS011;10003;52.506;4.700;2022-09-17T12:31:07;2.23;;;1.93;;
19705;SDS011;10003;52.506;4.700;2022-09-17T12:33:39;2.70;;;1.20;;
19705;SDS011;10003;52.506;4.700;2022-09-17T12:36:14;3.00;;;1.83;;
19705;SDS011;10003;52.506;4.700;2022-09-17T12:41:36;3.17;;;1.30;;
19705;SDS011;10003;52.506;4.700;2022-09-17T12:44:16;1.57;;;1.00;;
19705;SDS011;10003;52.506;4.700;2022-09-17T12:46:49;1.50;;;1.13;;
19705;SDS011;10003;52.506;4.700;2022-09-17T12:49:30;1.57;;;1.20;;
19705;SDS011;10003;52.506;4.700;2022-09-17T12:52:03;3.93;;;2.37;;
19705;SDS011;10003;52.506;4.700;2022-09-17T12:54:48;8.03;;;2.13;;
19705;SDS011;10003;52.506;4.700;2022-09-17T12:57:21;4.67;;;2.00;;
19705;SDS011;10003;52.506;4.700;2022-09-17T12:59:53;3.50;;;1.27;;
19705;SDS011;10003;52.506;4.700;2022-09-17T13:02:34;6.73;;;1.73;;
19705;SDS011;10003;52.506;4.700;2022-09-17T13:05:15;3.63;;;1.63;;
19705;SDS011;10003;52.506;4.700;2022-09-17T13:10:47;5.20;;;1.40;;
19705;SDS011;10003;52.506;4.700;2022-09-17T13:13:23;6.50;;;1.87;;
19705;SDS011;10003;52.506;4.700;2022-09-17T13:15:56;7.73;;;1.40;;
19705;SDS011;10003;52.506;4.700;2022-09-17T13:18:33;8.73;;;2.83;;
19705;SDS011;10003;52.506;4.700;2022-09-17T13:21:15;4.80;;;1.67;;
19705;SDS011;10003;52.506;4.700;2022-09-17T13:23:45;4.97;;;1.33;;
19705;SDS011;10003;52.506;4.700;2022-09-17T13:26:16;4.33;;;2.00;;
19705;SDS011;10003;52.506;4.700;2022-09-17T13:28:45;7.20;;;1.67;;
19705;SDS011;10003;52.506;4.700;2022-09-17T13:31:20;3.10;;;2.03;;
19705;SDS011;10003;52.506;4.700;2022-09-17T13:33:53;4.50;;;1.20;;
19705;SDS011;10003;52.506;4.700;2022-09-17T13:39:31;5.90;;;1.90;;
19705;SDS011;10003;52.506;4.700;2022-09-17T13:42:02;3.33;;;1.70;;
19705;SDS011;10003;52.506;4.700;2022-09-17T13:44:33;8.07;;;2.33;;
19705;SDS011;10003;52.506;4.700;2022-09-17T13:49:52;7.80;;;2.10;;
19705;SDS011;10003;52.506;4.700;2022-09-17T13:52:31;6.40;;;1.17;;
19705;SDS011;10003;52.506;4.700;2022-09-17T13:55:01;3.47;;;1.73;;
19705;SDS011;10003;52.506;4.700;2022-09-17T13:57:31;12.87;;;2.17;;
19705;SDS011;10003;52.506;4.700;2022-09-17T14:00:00;4.50;;;1.70;;
19705;SDS011;10003;52.506;4.700;2022-09-17T14:02:38;4.27;;;1.60;;
19705;SDS011;10003;52.506;4.700;2022-09-17T14:08:12;2.13;;;1.30;;
19705;SDS011;10003;52.506;4.700;2022-09-17T14:10:41;2.63;;;1.50;;
19705;SDS011;10003;52.506;4.700;2022-09-17T14:13:24;3.93;;;1.90;;
19705;SDS011;10003;52.506;4.700;2022-09-17T14:18:37;3.30;;;1.53;;
19705;SDS011;10003;52.506;4.700;2022-09-17T14:21:13;8.53;;;1.97;;
19705;SDS011;10003;52.506;4.700;2022-09-17T14:23:43;7.20;;;3.20;;
19705;SDS011;10003;52.506;4.700;2022-09-17T14:26:13;6.23;;;1.70;;
19705;SDS011;10003;52.506;4.700;2022-09-17T14:28:47;4.17;;;1.60;;
19705;SDS011;10003;52.506;4.700;2022-09-17T14:31:20;6.53;;;1.80;;
19705;SDS011;10003;52.506;4.700;2022-09-17T14:33:49;5.53;;;1.40;;
19705;SDS011;10003;52.506;4.700;2022-09-17T14:36:19;7.97;;;1.77;;
19705;SDS011;10003;52.506;4.700;2022-09-17T14:38:48;7.97;;;2.53;;
19705;SDS011;10003;52.506;4.700;2022-09-17T14:41:19;5.40;;;1.63;;
19705;SDS011;10003;52.506;4.700;2022-09-17T14:43:51;7.07;;;1.77;;
19705;SDS011;10003;52.506;4.700;2022-09-17T14:46:20;5.80;;;2.07;;
19705;SDS011;10003;52.506;4.700;2022-09-17T14:48:49;9.70;;;3.33;;
19705;SDS011;10003;52.506;4.700;2022-09-17T14:51:24;7.37;;;2.13;;
19705;SDS011;10003;52.506;4.700;2022-09-17T14:54:07;2.23;;;1.30;;
19705;SDS011;10003;52.506;4.700;2022-09-17T14:56:40;0.80;;;0.80;;
19705;SDS011;10003;52.506;4.700;2022-09-17T14:59:13;4.47;;;1.83;;
19705;SDS011;10003;52.506;4.700;2022-09-17T15:01:46;3.13;;;1.53;;
19705;SDS011;10003;52.506;4.700;2022-09-17T15:04:19;1.97;;;0.73;;
19705;SDS011;10003;52.506;4.700;2022-09-17T15:06:48;5.33;;;1.60;;
19705;SDS011;10003;52.506;4.700;2022-09-17T15:09:17;2.90;;;1.67;;
19705;SDS011;10003;52.506;4.700;2022-09-17T15:11:46;4.00;;;1.43;;
19705;SDS011;10003;52.506;4.700;2022-09-17T15:14:17;1.77;;;0.90;;
19705;SDS011;10003;52.506;4.700;2022-09-17T15:16:47;4.47;;;2.33;;
19705;SDS011;10003;52.506;4.700;2022-09-17T15:19:19;0.77;;;0.77;;
19705;SDS011;10003;52.506;4.700;2022-09-17T15:21:49;3.30;;;1.43;;
19705;SDS011;10003;52.506;4.700;2022-09-17T15:24:21;0.90;;;0.90;;
19705;SDS011;10003;52.506;4.700;2022-09-17T15:26:53;2.13;;;1.07;;
19705;SDS011;10003;52.506;4.700;2022-09-17T15:29:25;5.60;;;1.73;;
19705;SDS011;10003;52.506;4.700;2022-09-17T15:31:56;1.90;;;1.23;;